Time;durP1;ratioP1;P1;durP2;ratioP2;P2;SDS_P1;SDS_P2;PMS_P1;PMS_P2;Temp;Humidity;BMP_temperature;BMP_pressure;BME280_temperature;BME280_humidity;BME280_pressure;Samples;Min_cycle;Max_cycle;Signal;HPM_P1;HPM_P2
2021/09/22 09:26:43;;;;;;;28.70;22.23;;;333.60;2022.40;;;;;;5111373;27;20891;-62
2021/09/22 09:29:09;;;;;;;18.85;10.57;;;333.70;2022.40;;;;;;5111032;28;20028;-61
2021/09/22 09:31:35;;;;;;;15.68;11.73;;;333.70;2048.00;;;;;;5111162;28;20067;-60
2021/09/22 09:34:04;;;;;;;15.77;12.98;;;358.40;2022.40;;;;;;5111172;28;20031;-60
2021/09/22 09:36:42;;;;;;;12.13;10.13;;;358.50;2022.40;;;;;;5109630;28;20031;-61
2021/09/22 09:39:39;;;;;;;13.48;10.35;;;358.60;2022.40;;;;;;5111064;28;20024;-63
2021/09/22 09:42:05;;;;;;;12.23;9.88;;;358.70;2022.40;;;;;;5109916;28;20032;-59
2021/09/22 09:44:32;;;;;;;23.52;13.02;;;358.80;2022.40;;;;;;5110834;28;20027;-61
2021/09/22 09:47:10;;;;;;;15.75;11.07;;;358.80;2022.40;;;;;;5110990;28;20016;-60
2021/09/22 09:49:37;;;;;;;20.15;13.73;;;358.90;1996.80;;;;;;5110846;28;20103;-61
2021/09/22 09:52:04;;;;;;;18.10;12.07;;;358.90;1996.80;;;;;;5110867;28;20367;-60
2021/09/22 09:54:38;;;;;;;22.15;13.98;;;358.90;1996.80;;;;;;5110833;28;20111;-59
2021/09/22 09:57:18;;;;;;;16.95;11.75;;;358.90;1996.80;;;;;;5110729;28;20026;-60
2021/09/22 09:59:53;;;;;;;18.60;12.43;;;359.00;1996.80;;;;;;5110312;28;20032;-62
2021/09/22 10:02:31;;;;;;;33.42;11.02;;;359.00;1996.80;;;;;;5111038;28;20028;-62
2021/09/22 10:04:58;;;;;;;16.55;12.20;;;359.00;1996.80;;;;;;5110521;28;20028;-66
2021/09/22 10:07:25;;;;;;;21.90;11.30;;;359.00;1996.80;;;;;;5110479;28;20028;-62
2021/09/22 10:09:52;;;;;;;15.43;11.95;;;359.00;1996.80;;;;;;5110329;28;20032;-61
2021/09/22 10:12:19;;;;;;;30.48;13.27;;;359.00;1996.80;;;;;;5110292;28;20048;-61
2021/09/22 10:14:46;;;;;;;15.70;11.57;;;359.00;2022.40;;;;;;5110228;28;20507;-60
2021/09/22 10:17:15;;;;;;;19.02;12.48;;;359.00;1996.80;;;;;;5110240;28;20114;-76
2021/09/22 10:19:46;;;;;;;19.60;12.82;;;359.00;2048.00;;;;;;5110134;28;20142;-73
2021/09/22 10:22:13;;;;;;;13.90;12.20;;;359.00;2048.00;;;;;;5110395;28;20027;-69
2021/09/22 10:24:42;;;;;;;18.50;12.30;;;359.00;2048.00;;;;;;5108852;28;20086;-60
2021/09/22 10:27:15;;;;;;;18.15;13.15;;;359.00;2048.00;;;;;;5109042;28;20101;-62
2021/09/22 10:30:03;;;;;;;21.77;12.93;;;359.00;2048.00;;;;;;5106855;28;20034;-60
2021/09/22 10:32:37;;;;;;;18.98;13.40;;;359.00;2073.60;;;;;;5107891;28;20039;-59
2021/09/22 10:35:25;;;;;;;18.83;12.25;;;359.00;2099.20;;;;;;5107090;28;20020;-63
2021/09/22 10:37:52;;;;;;;16.55;12.82;;;359.00;2099.20;;;;;;5095536;28;20107;-59
2021/09/22 10:40:31;;;;;;;19.35;12.98;;;358.90;2099.20;;;;;;5094944;28;20024;-60
2021/09/22 10:43:16;;;;;;;16.15;13.48;;;358.90;2099.20;;;;;;5092310;28;20027;-64
2021/09/22 10:45:45;;;;;;;17.35;13.55;;;358.90;2124.80;;;;;;5092897;28;20503;-60
2021/09/22 10:48:23;;;;;;;25.67;17.63;;;358.90;2124.80;;;;;;5095206;28;20032;-61
2021/09/22 10:50:56;;;;;;;22.25;18.98;;;358.90;2124.80;;;;;;5094826;28;20496;-63
2021/09/22 10:53:34;;;;;;;;;;;358.90;2124.80;;;;;;5093785;28;20028;-59
2021/09/22 10:56:05;;;;;;;26.48;19.13;;;358.90;2124.80;;;;;;5095965;28;20450;-60
2021/09/22 10:58:52;;;;;;;26.02;19.58;;;358.90;2099.20;;;;;;5095950;28;20492;-61
2021/09/22 11:01:39;;;;;;;55.88;42.42;;;358.90;2124.80;;;;;;5096075;28;20052;-77
2021/09/22 11:04:06;;;;;;;35.47;22.95;;;358.90;2124.80;;;;;;5095899;28;20423;-76
2021/09/22 11:09:23;;;;;;;19.33;16.38;;;359.00;2150.40;;;;;;5095156;28;20044;-75
2021/09/22 11:12:03;;;;;;;21.58;17.67;;;359.00;2124.80;;;;;;5094806;28;20070;-75
2021/09/22 11:14:51;;;;;;;23.10;16.00;;;359.00;2099.20;;;;;;5094739;28;20114;-75
2021/09/22 11:17:22;;;;;;;20.27;16.52;;;358.90;2099.20;;;;;;5094026;28;20016;-75
2021/09/22 11:20:08;;;;;;;20.58;18.38;;;358.80;2099.20;;;;;;5093688;28;20483;-60
2021/09/22 11:22:36;;;;;;;19.00;16.42;;;358.70;2099.20;;;;;;5091250;28;20020;-71
2021/09/22 11:25:08;;;;;;;23.08;18.65;;;358.70;2124.80;;;;;;5093554;28;20040;-77
2021/09/22 11:27:34;;;;;;;17.90;15.95;;;358.60;2124.80;;;;;;5091622;28;20028;-73
2021/09/22 11:30:03;;;;;;;17.67;13.85;;;358.60;2150.40;;;;;;5092577;28;20024;-76
2021/09/22 11:32:42;;;;;;;24.67;22.17;;;358.60;2176.00;;;;;;5094486;28;20392;-75
2021/09/22 11:35:12;;;;;;;24.33;19.38;;;358.60;2176.00;;;;;;5093764;28;20050;-66
2021/09/22 11:37:56;;;;;;;20.80;15.52;;;358.60;2176.00;;;;;;5087789;28;20484;-60
2021/09/22 11:40:30;;;;;;;25.25;16.92;;;358.60;2201.60;;;;;;5093383;28;20032;-67
2021/09/22 11:43:01;;;;;;;17.02;15.15;;;358.70;2201.60;;;;;;5092212;28;20376;-62
2021/09/22 11:45:33;;;;;;;19.65;16.75;;;358.70;2201.60;;;;;;5092008;28;20024;-61
2021/09/22 11:47:59;;;;;;;20.13;14.95;;;358.80;2227.20;;;;;;5091277;28;20028;-66
2021/09/22 11:50:36;;;;;;;18.50;15.43;;;358.70;2227.20;;;;;;5091775;28;20078;-61
2021/09/22 11:53:10;;;;;;;18.05;14.18;;;358.60;2252.80;;;;;;5091734;28;20047;-63
2021/09/22 11:55:37;;;;;;;20.85;14.93;;;358.70;2252.80;;;;;;5091927;28;20036;-61
2021/09/22 11:58:16;;;;;;;22.48;16.85;;;358.70;2252.80;;;;;;5093982;28;20426;-60
2021/09/22 12:00:43;;;;;;;17.67;15.57;;;359.20;2252.80;;;;;;5093835;28;20027;-60
2021/09/22 12:03:12;;;;;;;21.13;16.20;;;358.80;2252.80;;;;;;5093670;28;20020;-60
2021/09/22 12:05:39;;;;;;;19.25;15.15;;;358.80;2227.20;;;;;;5093613;28;20031;-67
2021/09/22 12:08:06;;;;;;;19.35;16.85;;;358.90;2227.20;;;;;;5093347;28;20027;-66
2021/09/22 12:10:32;;;;;;;24.52;20.35;;;358.90;2227.20;;;;;;5093900;28;20406;-64
2021/09/22 12:13:00;;;;;;;24.42;19.73;;;358.80;2227.20;;;;;;5093318;28;20020;-72
2021/09/22 12:15:27;;;;;;;21.85;17.60;;;358.80;2201.60;;;;;;5093603;28;20040;-73
2021/09/22 12:17:53;;;;;;;21.08;16.60;;;358.90;2201.60;;;;;;5092966;28;20469;-61
2021/09/22 12:20:19;;;;;;;23.75;19.73;;;358.90;2227.20;;;;;;5093232;28;20032;-59
2021/09/22 12:23:04;;;;;;;23.27;16.90;;;358.80;2252.80;;;;;;5093207;28;20034;-59
2021/09/22 12:25:31;;;;;;;23.35;20.02;;;358.90;2252.80;;;;;;5092661;28;20043;-59
2021/09/22 12:27:59;;;;;;;26.40;21.92;;;358.90;2227.20;;;;;;5092166;28;20040;-60
2021/09/22 12:30:34;;;;;;;28.40;25.08;;;358.80;2227.20;;;;;;5092983;28;20028;-65
2021/09/22 12:33:04;;;;;;;29.17;24.08;;;358.80;2201.60;;;;;;5092527;28;20126;-61
2021/09/22 12:35:33;;;;;;;31.63;26.38;;;358.80;2227.20;;;;;;5092804;28;20043;-61
2021/09/22 12:38:02;;;;;;;27.33;22.35;;;358.80;2252.80;;;;;;5092832;28;20028;-60
2021/09/22 12:40:40;;;;;;;26.23;22.67;;;358.80;2252.80;;;;;;5093010;28;20484;-64
2021/09/22 12:43:18;;;;;;;32.08;26.73;;;358.70;2252.80;;;;;;5092812;28;20484;-62
2021/09/22 12:45:45;;;;;;;24.95;21.20;;;358.60;2252.80;;;;;;5092276;28;20107;-63
2021/09/22 12:48:23;;;;;;;21.17;17.20;;;358.70;2252.80;;;;;;5092639;28;20028;-60
2021/09/22 12:50:48;;;;;;;21.13;17.45;;;358.70;2252.80;;;;;;5092626;28;20036;-60
2021/09/22 12:53:17;;;;;;;21.27;17.58;;;358.70;2252.80;;;;;;5092638;28;20027;-61
2021/09/22 12:55:44;;;;;;;24.60;17.27;;;358.70;2252.80;;;;;;5092663;28;20170;-62
2021/09/22 12:58:13;;;;;;;21.30;16.63;;;358.60;2252.80;;;;;;5092297;28;20023;-61
2021/09/22 13:01:05;;;;;;;26.83;19.30;;;358.60;2252.80;;;;;;5092342;28;20023;-62
2021/09/22 13:03:47;;;;;;;25.42;19.23;;;358.70;2252.80;;;;;;5089063;28;20059;-62
2021/09/22 13:06:20;;;;;;;31.02;19.33;;;358.70;2252.80;;;;;;5092168;28;20032;-60
2021/09/22 13:08:46;;;;;;;22.07;17.27;;;358.70;2252.80;;;;;;5092356;28;20038;-61
2021/09/22 13:11:23;;;;;;;21.60;16.30;;;358.70;2278.40;;;;;;5092523;28;20031;-65
2021/09/22 13:13:53;;;;;;;21.00;17.17;;;358.70;2252.80;;;;;;5092394;28;20073;-68
2021/09/22 13:16:34;;;;;;;21.83;17.15;;;358.40;2252.80;;;;;;5092478;28;20047;-63
2021/09/22 13:19:03;;;;;;;20.15;16.88;;;358.70;2252.80;;;;;;5092122;28;20116;-61
2021/09/22 13:21:29;;;;;;;27.63;16.67;;;358.70;2252.80;;;;;;5092415;28;20024;-60
2021/09/22 13:23:59;;;;;;;17.83;15.80;;;358.80;2227.20;;;;;;5092144;28;20028;-60
2021/09/22 13:26:25;;;;;;;19.98;17.15;;;358.80;2227.20;;;;;;5092189;28;20079;-61
2021/09/22 13:28:52;;;;;;;20.42;16.35;;;358.80;2227.20;;;;;;5091853;28;20085;-61
2021/09/22 13:31:20;;;;;;;18.20;14.60;;;358.80;2227.20;;;;;;5092258;28;20032;-60
2021/09/22 13:33:46;;;;;;;18.55;14.88;;;358.80;2227.20;;;;;;5092583;28;20020;-62
2021/09/22 13:36:12;;;;;;;17.98;15.85;;;358.70;2227.20;;;;;;5091831;28;20040;-67
2021/09/22 13:38:39;;;;;;;18.23;15.35;;;358.70;2227.20;;;;;;5090824;28;20024;-61
2021/09/22 13:41:05;;;;;;;17.45;14.45;;;358.70;2227.20;;;;;;5092272;28;20051;-60
2021/09/22 13:43:33;;;;;;;25.65;15.80;;;358.70;2227.20;;;;;;5090985;28;20303;-60
2021/09/22 13:46:00;;;;;;;18.67;15.45;;;358.60;2227.20;;;;;;5091956;28;20082;-61
2021/09/22 13:48:26;;;;;;;18.40;16.10;;;358.70;2227.20;;;;;;5090914;28;20070;-60
2021/09/22 13:50:52;;;;;;;19.23;16.70;;;358.80;2227.20;;;;;;5091522;28;20021;-60
2021/09/22 13:53:19;;;;;;;21.52;18.30;;;358.80;2227.20;;;;;;5092314;28;20093;-68
2021/09/22 13:55:46;;;;;;;17.95;15.35;;;358.80;2227.20;;;;;;5092061;28;20043;-67
2021/09/22 13:58:13;;;;;;;18.45;15.50;;;358.80;2227.20;;;;;;5092057;28;20016;-60
2021/09/22 14:00:40;;;;;;;21.00;15.93;;;358.80;2227.20;;;;;;5091929;28;20103;-65
2021/09/22 14:03:07;;;;;;;21.45;17.08;;;358.80;2227.20;;;;;;5091917;28;20031;-60
2021/09/22 14:05:34;;;;;;;22.55;17.80;;;358.80;2227.20;;;;;;5092255;28;20060;-62
2021/09/22 14:08:02;;;;;;;22.58;18.98;;;358.80;2227.20;;;;;;5092441;28;20066;-60
2021/09/22 14:10:30;;;;;;;23.48;17.80;;;358.80;2227.20;;;;;;5092249;28;20503;-60
2021/09/22 14:13:00;;;;;;;20.70;17.20;;;358.70;2252.80;;;;;;5094346;28;20046;-65
2021/09/22 14:15:31;;;;;;;20.17;17.00;;;358.60;2252.80;;;;;;5096075;28;20395;-60
2021/09/22 14:17:57;;;;;;;25.35;17.13;;;358.60;2278.40;;;;;;5096011;28;20093;-65
2021/09/22 14:20:25;;;;;;;21.77;19.42;;;358.60;2252.80;;;;;;5095963;28;20549;-64
2021/09/22 14:22:51;;;;;;;22.67;20.23;;;358.60;2278.40;;;;;;5095660;28;20020;-59
2021/09/22 14:25:18;;;;;;;22.48;20.15;;;358.60;2304.00;;;;;;5095478;28;20602;-58
2021/09/22 14:27:47;;;;;;;22.70;19.55;;;358.60;2304.00;;;;;;5095751;28;20024;-56
2021/09/22 14:30:14;;;;;;;25.63;20.40;;;358.60;2278.40;;;;;;5095475;28;20028;-57
2021/09/22 14:32:40;;;;;;;25.92;20.48;;;358.60;2304.00;;;;;;5095798;28;20050;-59
2021/09/22 14:35:07;;;;;;;24.20;19.17;;;358.60;2304.00;;;;;;5095156;28;20059;-59
2021/09/22 14:37:32;;;;;;;32.58;28.15;;;358.60;2304.00;;;;;;5095585;28;20024;-59
2021/09/22 14:39:58;;;;;;;37.70;33.22;;;358.60;2304.00;;;;;;5095271;28;20412;-60
2021/09/22 14:42:24;;;;;;;33.78;30.23;;;358.60;2329.60;;;;;;5095587;28;20118;-57
2021/09/22 14:44:50;;;;;;;26.33;21.27;;;358.60;2329.60;;;;;;5095347;28;20095;-58
2021/09/22 14:47:16;;;;;;;25.02;20.30;;;358.60;2329.60;;;;;;5095273;28;20634;-59
2021/09/22 14:49:42;;;;;;;23.95;19.67;;;358.60;2329.60;;;;;;5095317;28;20065;-58
2021/09/22 14:52:08;;;;;;;26.77;20.27;;;358.60;2329.60;;;;;;5094850;28;20028;-61
2021/09/22 14:54:35;;;;;;;56.83;21.65;;;358.60;2329.60;;;;;;5095223;28;20020;-61
2021/09/22 14:57:02;;;;;;;33.80;25.48;;;358.60;2329.60;;;;;;5094810;28;20043;-61
2021/09/22 14:59:28;;;;;;;36.05;32.05;;;358.60;2329.60;;;;;;5095143;28;20034;-61
2021/09/22 15:01:54;;;;;;;49.50;38.22;;;358.60;2329.60;;;;;;5095311;28;20019;-65
2021/09/22 15:04:21;;;;;;;44.38;33.00;;;358.60;2329.60;;;;;;5094922;28;20503;-64
2021/09/22 15:06:52;;;;;;;42.00;31.60;;;358.60;2329.60;;;;;;5094133;28;20028;-62
2021/09/22 15:09:18;;;;;;;32.08;25.45;;;358.60;2329.60;;;;;;5094652;28;20043;-61
2021/09/22 15:11:44;;;;;;;32.95;24.33;;;358.70;2329.60;;;;;;5095012;28;20426;-61
2021/09/22 15:14:09;;;;;;;33.78;26.98;;;358.60;2329.60;;;;;;5094766;28;20028;-60
2021/09/22 15:16:35;;;;;;;30.05;24.85;;;358.70;2329.60;;;;;;5094970;28;20063;-62
2021/09/22 15:19:01;;;;;;;35.78;27.52;;;358.70;2329.60;;;;;;5094730;28;20020;-61
2021/09/22 15:21:27;;;;;;;29.20;23.10;;;358.80;2329.60;;;;;;5094894;28;20472;-61
2021/09/22 15:23:53;;;;;;;28.10;22.60;;;358.80;2329.60;;;;;;5094292;28;20042;-61
2021/09/22 15:26:18;;;;;;;29.95;23.63;;;358.80;2329.60;;;;;;5094330;28;20055;-61
2021/09/22 15:28:44;;;;;;;36.50;30.00;;;358.80;2329.60;;;;;;5094497;28;20465;-62
2021/09/22 15:31:10;;;;;;;33.03;24.98;;;358.80;2329.60;;;;;;5094388;28;20025;-61
2021/09/22 15:33:36;;;;;;;34.30;25.05;;;358.80;2329.60;;;;;;5094605;28;20031;-62
2021/09/22 15:36:02;;;;;;;37.25;25.13;;;358.80;2329.60;;;;;;5094037;28;20032;-60
2021/09/22 15:38:28;;;;;;;114.00;49.55;;;358.80;2329.60;;;;;;5094142;28;20024;-60
2021/09/22 15:40:54;;;;;;;38.80;27.63;;;358.80;2329.60;;;;;;5094247;28;20408;-61
2021/09/22 15:43:19;;;;;;;30.63;23.77;;;358.80;2329.60;;;;;;5094232;28;20465;-60
2021/09/22 15:45:48;;;;;;;31.17;22.20;;;358.80;2329.60;;;;;;5093905;28;20031;-61
2021/09/22 15:48:15;;;;;;;26.55;19.30;;;358.80;2329.60;;;;;;5094137;28;20032;-61
2021/09/22 15:50:44;;;;;;;31.83;24.75;;;358.80;2329.60;;;;;;5094182;28;20085;-61
2021/09/22 15:53:10;;;;;;;44.80;33.65;;;358.90;2329.60;;;;;;5093978;28;20024;-61
2021/09/22 15:55:36;;;;;;;45.53;36.42;;;358.90;2329.60;;;;;;5093741;28;20046;-60
2021/09/22 15:58:03;;;;;;;51.83;39.72;;;358.90;2329.60;;;;;;5093017;28;20020;-76
2021/09/22 16:00:30;;;;;;;52.72;41.60;;;358.90;2329.60;;;;;;5093939;28;20026;-78
2021/09/22 16:02:56;;;;;;;51.90;40.78;;;358.90;2329.60;;;;;;5093755;28;20419;-77
2021/09/22 16:05:21;;;;;;;40.20;32.00;;;358.80;2329.60;;;;;;5093727;28;20027;-74
2021/09/22 16:07:47;;;;;;;42.08;36.63;;;358.90;2329.60;;;;;;5093422;28;20666;-68
2021/09/22 16:10:13;;;;;;;64.22;45.08;;;358.90;2329.60;;;;;;5093581;28;20208;-75
2021/09/22 16:12:40;;;;;;;50.13;42.75;;;358.90;2329.60;;;;;;5093763;28;20039;-62
2021/09/22 16:15:07;;;;;;;45.40;35.90;;;358.90;2329.60;;;;;;5093423;28;20032;-69
2021/09/22 16:17:32;;;;;;;45.92;36.75;;;358.90;2329.60;;;;;;5093569;28;20024;-76
2021/09/22 16:19:59;;;;;;;35.00;29.35;;;358.90;2329.60;;;;;;5093539;28;20142;-67
2021/09/22 16:25:02;;;;;;;34.97;29.35;;;358.90;2329.60;;;;;;5347492;22;20512;-73
2021/09/22 16:27:27;;;;;;;33.88;27.50;;;358.90;2329.60;;;;;;5034023;28;20061;-74
2021/09/22 16:29:53;;;;;;;35.35;25.77;;;358.90;2329.60;;;;;;5034076;28;20570;-75
2021/09/22 16:32:19;;;;;;;48.22;30.95;;;358.80;2304.00;;;;;;5033838;28;20036;-73
2021/09/22 16:34:45;;;;;;;37.83;26.90;;;358.80;2329.60;;;;;;5033768;28;20029;-73
2021/09/22 16:37:11;;;;;;;33.83;23.30;;;358.90;2304.00;;;;;;5034000;28;20469;-71
2021/09/22 16:39:37;;;;;;;34.75;21.60;;;358.90;2329.60;;;;;;5033829;28;20032;-71
2021/09/22 16:42:03;;;;;;;24.00;19.70;;;358.90;2329.60;;;;;;5033835;28;20034;-72
2021/09/22 16:44:29;;;;;;;25.08;18.83;;;358.90;2329.60;;;;;;5032946;28;20025;-72
2021/09/22 16:46:57;;;;;;;23.10;19.60;;;358.90;2329.60;;;;;;5033300;28;20020;-71
2021/09/22 16:49:24;;;;;;;29.50;24.17;;;358.90;2329.60;;;;;;5033125;28;20100;-73
2021/09/22 16:51:50;;;;;;;30.23;24.50;;;358.80;2329.60;;;;;;5033166;28;20021;-71
2021/09/22 16:54:15;;;;;;;31.63;24.95;;;358.80;2329.60;;;;;;5033144;28;20036;-71
2021/09/22 16:56:42;;;;;;;32.88;25.92;;;358.90;2329.60;;;;;;5033099;28;20473;-71
2021/09/22 16:59:09;;;;;;;32.53;24.40;;;358.80;2329.60;;;;;;5035802;28;20025;-71
2021/09/22 17:01:35;;;;;;;39.30;30.20;;;358.80;2329.60;;;;;;5033317;28;20389;-71
2021/09/22 17:04:01;;;;;;;47.85;36.35;;;358.90;2304.00;;;;;;5032665;28;20113;-71
2021/09/22 17:06:27;;;;;;;63.88;47.33;;;358.90;2329.60;;;;;;5033257;28;20030;-71
2021/09/22 17:08:54;;;;;;;65.93;51.33;;;358.90;2329.60;;;;;;5032896;28;20036;-70
2021/09/22 17:11:20;;;;;;;63.15;52.45;;;358.90;2329.60;;;;;;5030477;28;20075;-71
2021/09/22 17:13:46;;;;;;;74.15;54.97;;;358.90;2329.60;;;;;;5032636;28;20450;-70
2021/09/22 17:16:16;;;;;;;65.50;47.65;;;358.90;2329.60;;;;;;5032644;28;20476;-70
2021/09/22 17:18:42;;;;;;;53.58;39.03;;;358.90;2304.00;;;;;;5012179;28;20030;-71
2021/09/22 17:21:08;;;;;;;40.33;30.77;;;358.90;2329.60;;;;;;5012527;28;20030;-71
2021/09/22 17:23:34;;;;;;;40.30;26.55;;;358.90;2304.00;;;;;;5012507;28;20026;-71
2021/09/22 17:26:01;;;;;;;31.48;23.08;;;358.90;2304.00;;;;;;5012481;28;20037;-71
2021/09/22 17:28:26;;;;;;;29.35;22.80;;;358.80;2304.00;;;;;;5013027;28;20034;-71
2021/09/22 17:30:53;;;;;;;26.77;21.23;;;358.80;2329.60;;;;;;5012756;28;20505;-71
2021/09/22 17:33:19;;;;;;;31.95;24.20;;;358.80;2304.00;;;;;;5012368;28;20119;-70
2021/09/22 17:35:45;;;;;;;29.50;21.65;;;358.80;2304.00;;;;;;5012543;28;20484;-70
2021/09/22 17:38:11;;;;;;;27.42;22.27;;;358.80;2304.00;;;;;;5024429;28;20095;-70
2021/09/22 17:40:37;;;;;;;29.40;23.10;;;358.80;2304.00;;;;;;5032208;28;20021;-70
2021/09/22 17:43:07;;;;;;;33.45;26.88;;;358.80;2304.00;;;;;;5031903;28;20088;-71
2021/09/22 17:45:33;;;;;;;34.17;26.40;;;358.80;2304.00;;;;;;5031876;28;20533;-71
2021/09/22 17:48:00;;;;;;;32.35;25.50;;;358.70;2329.60;;;;;;5034809;28;20056;-71
2021/09/22 17:50:26;;;;;;;37.65;25.38;;;358.70;2329.60;;;;;;5036055;28;20104;-72
2021/09/22 17:52:53;;;;;;;29.90;25.40;;;358.70;2329.60;;;;;;5035748;28;20030;-71
2021/09/22 17:55:19;;;;;;;29.48;24.05;;;358.70;2329.60;;;;;;5035539;28;20030;-74
2021/09/22 17:57:45;;;;;;;28.55;23.58;;;358.70;2329.60;;;;;;5036080;28;20491;-74
2021/09/22 18:00:15;;;;;;;29.95;24.23;;;358.80;2329.60;;;;;;5035371;28;20101;-77
2021/09/22 18:02:41;;;;;;;29.02;22.85;;;358.80;2329.60;;;;;;5018091;28;20022;-77
2021/09/22 18:05:12;;;;;;;24.88;21.83;;;358.80;2329.60;;;;;;5035514;28;20046;-77
2021/09/22 18:07:38;;;;;;;23.50;20.08;;;358.80;2329.60;;;;;;5034001;28;20080;-77
2021/09/22 18:10:06;;;;;;;24.90;21.05;;;358.80;2329.60;;;;;;5035339;28;20045;-75
2021/09/22 18:12:32;;;;;;;26.17;20.73;;;358.80;2329.60;;;;;;5035703;28;20021;-77
2021/09/22 18:14:59;;;;;;;28.20;21.58;;;358.80;2329.60;;;;;;5035170;28;20033;-76
2021/09/22 18:17:24;;;;;;;24.52;21.05;;;358.80;2304.00;;;;;;5034847;28;20132;-76
2021/09/22 18:19:51;;;;;;;26.52;21.63;;;358.80;2329.60;;;;;;5034988;28;20193;-75
2021/09/22 18:22:17;;;;;;;26.45;20.80;;;358.80;2304.00;;;;;;5033944;28;20057;-76
2021/09/22 18:24:47;;;;;;;27.55;22.20;;;358.80;2329.60;;;;;;5034710;28;20401;-76
2021/09/22 18:27:14;;;;;;;44.55;29.17;;;358.80;2304.00;;;;;;5034598;28;20092;-75
2021/09/22 18:29:40;;;;;;;34.28;25.95;;;358.80;2304.00;;;;;;5034742;28;20029;-73
2021/09/22 18:32:07;;;;;;;32.78;24.02;;;358.80;2329.60;;;;;;5035051;28;20030;-75
2021/09/22 18:34:33;;;;;;;33.72;26.98;;;358.80;2304.00;;;;;;5035225;28;20022;-76
2021/09/22 18:37:02;;;;;;;30.08;24.20;;;358.80;2304.00;;;;;;5034038;28;20050;-76
2021/09/22 18:39:34;;;;;;;32.03;23.70;;;358.80;2304.00;;;;;;5035449;28;20060;-75
2021/09/22 18:42:02;;;;;;;35.95;23.52;;;358.90;2304.00;;;;;;5018060;28;20018;-75
2021/09/22 18:44:28;;;;;;;35.60;26.00;;;358.90;2304.00;;;;;;5035861;28;20113;-76
2021/09/22 18:46:55;;;;;;;28.50;21.80;;;358.80;2304.00;;;;;;5034600;28;20032;-76
2021/09/22 18:49:21;;;;;;;25.80;21.23;;;358.80;2304.00;;;;;;5035699;28;20031;-76
2021/09/22 18:51:47;;;;;;;32.13;21.00;;;358.80;2304.00;;;;;;5035754;28;20116;-77
2021/09/22 18:54:14;;;;;;;25.08;19.77;;;358.80;2304.00;;;;;;5035818;28;20385;-76
2021/09/22 18:56:41;;;;;;;25.50;18.90;;;358.80;2304.00;;;;;;5035581;28;20475;-75
2021/09/22 18:59:08;;;;;;;25.60;20.08;;;358.80;2329.60;;;;;;5035235;28;20024;-76
2021/09/22 19:01:34;;;;;;;24.83;19.25;;;358.80;2304.00;;;;;;5035715;28;20096;-76
2021/09/22 19:04:01;;;;;;;27.25;19.88;;;358.80;2329.60;;;;;;5032529;28;20362;-76
2021/09/22 19:06:28;;;;;;;26.88;19.52;;;358.90;2329.60;;;;;;5035441;28;20026;-76
2021/09/22 19:08:53;;;;;;;31.15;22.17;;;358.80;2304.00;;;;;;5035509;28;20084;-76
2021/09/22 19:11:19;;;;;;;29.83;22.52;;;358.70;2329.60;;;;;;5035396;28;20425;-76
2021/09/22 19:13:45;;;;;;;31.95;22.58;;;358.70;2329.60;;;;;;5035575;28;20025;-75
2021/09/22 19:16:11;;;;;;;31.08;22.73;;;358.70;2304.00;;;;;;5035002;28;20478;-76
2021/09/22 19:18:37;;;;;;;28.00;21.48;;;358.70;2304.00;;;;;;5035364;28;20105;-77
2021/09/22 19:21:03;;;;;;;32.33;24.15;;;358.60;2304.00;;;;;;5035176;28;20025;-76
2021/09/22 19:23:29;;;;;;;33.03;25.45;;;358.70;2304.00;;;;;;5034512;28;20025;-77
2021/09/22 19:25:55;;;;;;;37.22;29.52;;;358.70;2304.00;;;;;;5034635;28;20071;-78
2021/09/22 19:28:22;;;;;;;35.88;28.73;;;358.70;2329.60;;;;;;5034631;28;20494;-77
2021/09/22 19:30:49;;;;;;;45.45;36.05;;;358.70;2329.60;;;;;;5034628;28;20410;-77
2021/09/22 19:33:16;;;;;;;42.80;36.78;;;358.70;2329.60;;;;;;5034649;28;20021;-77
2021/09/22 19:35:42;;;;;;;44.90;36.10;;;358.70;2329.60;;;;;;5034127;28;20508;-77
2021/09/22 19:38:09;;;;;;;53.47;36.33;;;358.80;2329.60;;;;;;5034214;28;20025;-78
2021/09/22 19:40:35;;;;;;;53.80;31.88;;;358.80;2329.60;;;;;;5034612;28;20075;-78
2021/09/22 19:43:02;;;;;;;41.75;26.90;;;358.80;2329.60;;;;;;5034876;28;20061;-77
2021/09/22 19:45:28;;;;;;;38.25;26.17;;;358.70;2329.60;;;;;;5034434;28;20217;-75
2021/09/22 19:47:54;;;;;;;32.53;23.75;;;358.80;2329.60;;;;;;5034497;28;20029;-77
2021/09/22 19:50:20;;;;;;;34.97;24.88;;;358.80;2329.60;;;;;;5034403;28;20048;-73
2021/09/22 19:52:47;;;;;;;41.45;27.05;;;358.80;2329.60;;;;;;5034204;28;20473;-73
2021/09/22 19:55:13;;;;;;;42.70;30.00;;;358.80;2329.60;;;;;;5034214;28;20076;-72
2021/09/22 19:57:40;;;;;;;42.05;31.77;;;358.80;2329.60;;;;;;5034122;28;20021;-72
